sensor_id;sensor_type;location;lat;lon;timestamp;temperature;humidity
6664;DHT22;58749;48.022;10.922;2023-01-08T00:02:04;6.40;99.90
6664;DHT22;58749;48.022;10.922;2023-01-08T00:04:32;6.40;99.90
6664;DHT22;58749;48.022;10.922;2023-01-08T00:07:01;6.40;99.90
6664;DHT22;58749;48.022;10.922;2023-01-08T00:09:29;6.40;99.90
6664;DHT22;58749;48.022;10.922;2023-01-08T00:11:57;6.40;99.90
6664;DHT22;58749;48.022;10.922;2023-01-08T00:14:25;6.40;99.90
6664;DHT22;58749;48.022;10.922;2023-01-08T00:16:53;6.40;99.90
6664;DHT22;58749;48.022;10.922;2023-01-08T00:19:22;6.40;99.90
6664;DHT22;58749;48.022;10.922;2023-01-08T00:21:50;6.30;99.90
6664;DHT22;58749;48.022;10.922;2023-01-08T00:24:18;6.30;99.90
6664;DHT22;58749;48.022;10.922;2023-01-08T00:26:46;6.30;99.90
6664;DHT22;58749;48.022;10.922;2023-01-08T00:29:14;6.30;99.90
6664;DHT22;58749;48.022;10.922;2023-01-08T00:31:42;6.30;99.90
6664;DHT22;58749;48.022;10.922;2023-01-08T00:34:11;6.30;99.90
6664;DHT22;58749;48.022;10.922;2023-01-08T00:36:40;6.30;99.90
6664;DHT22;58749;48.022;10.922;2023-01-08T00:39:08;6.30;99.90
6664;DHT22;58749;48.022;10.922;2023-01-08T00:41:36;6.30;99.90
6664;DHT22;58749;48.022;10.922;2023-01-08T00:44:04;6.20;99.90
6664;DHT22;58749;48.022;10.922;2023-01-08T00:46:32;6.20;99.90
6664;DHT22;58749;48.022;10.922;2023-01-08T00:49:01;6.20;99.90
6664;DHT22;58749;48.022;10.922;2023-01-08T00:51:29;6.10;99.90
6664;DHT22;58749;48.022;10.922;2023-01-08T00:53:58;6.00;99.90
6664;DHT22;58749;48.022;10.922;2023-01-08T00:56:26;5.90;99.90
6664;DHT22;58749;48.022;10.922;2023-01-08T00:58:54;5.80;99.90
6664;DHT22;58749;48.022;10.922;2023-01-08T01:01:22;5.70;99.90
6664;DHT22;58749;48.022;10.922;2023-01-08T01:03:50;5.70;99.90
6664;DHT22;58749;48.022;10.922;2023-01-08T01:06:19;5.60;99.90
6664;DHT22;58749;48.022;10.922;2023-01-08T01:08:47;5.70;99.90
6664;DHT22;58749;48.022;10.922;2023-01-08T01:11:19;5.70;99.90
6664;DHT22;58749;48.022;10.922;2023-01-08T01:13:48;5.80;99.90
6664;DHT22;58749;48.022;10.922;2023-01-08T01:16:17;5.90;99.90
6664;DHT22;58749;48.022;10.922;2023-01-08T01:18:45;5.90;99.90
6664;DHT22;58749;48.022;10.922;2023-01-08T01:21:21;6.00;99.90
6664;DHT22;58749;48.022;10.922;2023-01-08T01:23:52;6.00;99.90
6664;DHT22;58749;48.022;10.922;2023-01-08T01:26:23;6.00;99.90
6664;DHT22;58749;48.022;10.922;2023-01-08T01:28:52;6.00;99.90
6664;DHT22;58749;48.022;10.922;2023-01-08T01:31:21;6.00;99.90
6664;DHT22;58749;48.022;10.922;2023-01-08T01:33:50;6.00;99.90
6664;DHT22;58749;48.022;10.922;2023-01-08T01:36:19;6.00;99.90
6664;DHT22;58749;48.022;10.922;2023-01-08T01:38:50;6.00;99.90
6664;DHT22;58749;48.022;10.922;2023-01-08T01:41:24;6.00;99.90
6664;DHT22;58749;48.022;10.922;2023-01-08T01:43:54;6.00;99.90
6664;DHT22;58749;48.022;10.922;2023-01-08T01:46:34;6.00;99.90
6664;DHT22;58749;48.022;10.922;2023-01-08T01:49:07;6.00;99.90
6664;DHT22;58749;48.022;10.922;2023-01-08T01:51:40;6.00;99.90
6664;DHT22;58749;48.022;10.922;2023-01-08T01:54:10;6.00;99.90
6664;DHT22;58749;48.022;10.922;2023-01-08T01:56:40;6.00;99.90
6664;DHT22;58749;48.022;10.922;2023-01-08T01:59:10;6.00;99.90
6664;DHT22;58749;48.022;10.922;2023-01-08T02:01:39;6.00;99.90
6664;DHT22;58749;48.022;10.922;2023-01-08T02:04:08;6.00;99.90
6664;DHT22;58749;48.022;10.922;2023-01-08T02:06:40;6.00;99.90
6664;DHT22;58749;48.022;10.922;2023-01-08T02:09:15;6.00;99.90
6664;DHT22;58749;48.022;10.922;2023-01-08T02:11:48;5.90;99.90
6664;DHT22;58749;48.022;10.922;2023-01-08T02:14:44;6.00;99.90
6664;DHT22;58749;48.022;10.922;2023-01-08T02:17:18;6.00;99.90
6664;DHT22;58749;48.022;10.922;2023-01-08T02:19:52;6.00;99.90
6664;DHT22;58749;48.022;10.922;2023-01-08T02:22:33;6.00;99.90
6664;DHT22;58749;48.022;10.922;2023-01-08T02:25:09;5.90;99.90
6664;DHT22;58749;48.022;10.922;2023-01-08T02:27:42;6.00;99.90
6664;DHT22;58749;48.022;10.922;2023-01-08T02:30:12;5.90;99.90
6664;DHT22;58749;48.022;10.922;2023-01-08T02:32:41;5.90;99.90
6664;DHT22;58749;48.022;10.922;2023-01-08T02:35:10;5.90;99.90
6664;DHT22;58749;48.022;10.922;2023-01-08T02:37:38;5.90;99.90
6664;DHT22;58749;48.022;10.922;2023-01-08T02:40:17;5.90;99.90
6664;DHT22;58749;48.022;10.922;2023-01-08T02:42:52;5.90;99.90
6664;DHT22;58749;48.022;10.922;2023-01-08T02:45:28;5.90;99.90
6664;DHT22;58749;48.022;10.922;2023-01-08T02:48:03;5.80;99.90
6664;DHT22;58749;48.022;10.922;2023-01-08T02:50:38;5.80;99.90
6664;DHT22;58749;48.022;10.922;2023-01-08T02:53:11;5.90;99.90
6664;DHT22;58749;48.022;10.922;2023-01-08T02:55:43;5.90;99.90
6664;DHT22;58749;48.022;10.922;2023-01-08T02:58:14;5.90;99.90
6664;DHT22;58749;48.022;10.922;2023-01-08T03:00:43;5.90;99.90
6664;DHT22;58749;48.022;10.922;2023-01-08T03:03:15;5.90;99.90
6664;DHT22;58749;48.022;10.922;2023-01-08T03:05:46;5.80;99.90
6664;DHT22;58749;48.022;10.922;2023-01-08T03:08:15;5.80;99.90
6664;DHT22;58749;48.022;10.922;2023-01-08T03:10:48;5.80;99.90
6664;DHT22;58749;48.022;10.922;2023-01-08T03:13:22;5.80;99.90
6664;DHT22;58749;48.022;10.922;2023-01-08T03:15:54;5.80;99.90
6664;DHT22;58749;48.022;10.922;2023-01-08T03:18:26;5.80;99.90
6664;DHT22;58749;48.022;10.922;2023-01-08T03:20:56;5.80;99.90
6664;DHT22;58749;48.022;10.922;2023-01-08T03:23:25;5.80;99.90
6664;DHT22;58749;48.022;10.922;2023-01-08T03:25:54;5.80;99.90
6664;DHT22;58749;48.022;10.922;2023-01-08T03:28:28;5.80;99.90
6664;DHT22;58749;48.022;10.922;2023-01-08T03:30:58;5.80;99.90
6664;DHT22;58749;48.022;10.922;2023-01-08T03:33:29;5.80;99.90
6664;DHT22;58749;48.022;10.922;2023-01-08T03:36:00;5.70;99.90
6664;DHT22;58749;48.022;10.922;2023-01-08T03:38:32;5.70;99.90
6664;DHT22;58749;48.022;10.922;2023-01-08T03:41:05;5.70;99.90
6664;DHT22;58749;48.022;10.922;2023-01-08T03:43:36;5.70;99.90
6664;DHT22;58749;48.022;10.922;2023-01-08T03:46:09;5.70;99.90
6664;DHT22;58749;48.022;10.922;2023-01-08T03:48:40;5.70;99.90
6664;DHT22;58749;48.022;10.922;2023-01-08T03:51:08;5.70;99.90
6664;DHT22;58749;48.022;10.922;2023-01-08T03:53:37;5.70;99.90
6664;DHT22;58749;48.022;10.922;2023-01-08T03:56:05;5.70;99.90
6664;DHT22;58749;48.022;10.922;2023-01-08T03:58:34;5.70;99.90
6664;DHT22;58749;48.022;10.922;2023-01-08T04:01:03;5.70;99.90
6664;DHT22;58749;48.022;10.922;2023-01-08T04:03:31;5.70;99.90
6664;DHT22;58749;48.022;10.922;2023-01-08T04:05:59;5.70;99.90
6664;DHT22;58749;48.022;10.922;2023-01-08T04:08:27;5.70;99.90
6664;DHT22;58749;48.022;10.922;2023-01-08T04:10:55;5.70;99.90
6664;DHT22;58749;48.022;10.922;2023-01-08T04:13:23;5.70;99.90
6664;DHT22;58749;48.022;10.922;2023-01-08T04:15:58;5.70;99.90
6664;DHT22;58749;48.022;10.922;2023-01-08T04:18:28;5.70;99.90
6664;DHT22;58749;48.022;10.922;2023-01-08T04:20:56;5.70;99.90
6664;DHT22;58749;48.022;10.922;2023-01-08T04:23:24;5.70;99.90
6664;DHT22;58749;48.022;10.922;2023-01-08T04:25:52;5.70;99.90
6664;DHT22;58749;48.022;10.922;2023-01-08T04:28:20;5.70;99.90
6664;DHT22;58749;48.022;10.922;2023-01-08T04:30:48;5.70;99.90
6664;DHT22;58749;48.022;10.922;2023-01-08T04:33:16;5.60;99.90
6664;DHT22;58749;48.022;10.922;2023-01-08T04:35:46;5.60;99.90
6664;DHT22;58749;48.022;10.922;2023-01-08T04:38:14;5.60;99.90
6664;DHT22;58749;48.022;10.922;2023-01-08T04:40:42;5.60;99.90
6664;DHT22;58749;48.022;10.922;2023-01-08T04:43:10;5.60;99.90
6664;DHT22;58749;48.022;10.922;2023-01-08T04:45:38;5.60;99.90
6664;DHT22;58749;48.022;10.922;2023-01-08T04:48:06;5.60;99.90
6664;DHT22;58749;48.022;10.922;2023-01-08T04:50:34;5.60;99.90
6664;DHT22;58749;48.022;10.922;2023-01-08T04:53:03;5.60;99.90
6664;DHT22;58749;48.022;10.922;2023-01-08T04:55:32;5.60;99.90
6664;DHT22;58749;48.022;10.922;2023-01-08T04:58:01;5.60;99.90
6664;DHT22;58749;48.022;10.922;2023-01-08T05:00:29;5.60;99.90
6664;DHT22;58749;48.022;10.922;2023-01-08T05:02:57;5.60;99.90
6664;DHT22;58749;48.022;10.922;2023-01-08T05:05:26;5.60;99.90
6664;DHT22;58749;48.022;10.922;2023-01-08T05:07:54;5.60;99.90
6664;DHT22;58749;48.022;10.922;2023-01-08T05:10:23;5.60;99.90
6664;DHT22;58749;48.022;10.922;2023-01-08T05:12:51;5.60;99.90
6664;DHT22;58749;48.022;10.922;2023-01-08T05:15:19;5.50;99.90
6664;DHT22;58749;48.022;10.922;2023-01-08T05:17:47;5.50;99.90
6664;DHT22;58749;48.022;10.922;2023-01-08T05:20:15;5.50;99.90
6664;DHT22;58749;48.022;10.922;2023-01-08T05:22:47;5.50;99.90
6664;DHT22;58749;48.022;10.922;2023-01-08T05:25:15;5.50;99.90
6664;DHT22;58749;48.022;10.922;2023-01-08T05:27:44;5.50;99.90
6664;DHT22;58749;48.022;10.922;2023-01-08T05:30:12;5.50;99.90
6664;DHT22;58749;48.022;10.922;2023-01-08T05:32:40;5.50;99.90
6664;DHT22;58749;48.022;10.922;2023-01-08T05:35:09;5.50;99.90
6664;DHT22;58749;48.022;10.922;2023-01-08T05:37:37;5.50;99.90
6664;DHT22;58749;48.022;10.922;2023-01-08T05:40:06;5.50;99.90
6664;DHT22;58749;48.022;10.922;2023-01-08T05:42:34;5.50;99.90
6664;DHT22;58749;48.022;10.922;2023-01-08T05:45:05;5.50;99.90
6664;DHT22;58749;48.022;10.922;2023-01-08T05:47:34;5.40;99.90
6664;DHT22;58749;48.022;10.922;2023-01-08T05:50:02;5.10;99.90
6664;DHT22;58749;48.022;10.922;2023-01-08T05:52:30;4.70;99.90
6664;DHT22;58749;48.022;10.922;2023-01-08T05:54:58;4.70;99.90
6664;DHT22;58749;48.022;10.922;2023-01-08T05:57:26;4.60;99.90
6664;DHT22;58749;48.022;10.922;2023-01-08T05:59:54;4.70;99.90
6664;DHT22;58749;48.022;10.922;2023-01-08T06:02:23;4.70;99.90
6664;DHT22;58749;48.022;10.922;2023-01-08T06:04:51;4.70;99.90
6664;DHT22;58749;48.022;10.922;2023-01-08T06:07:19;4.70;99.90
6664;DHT22;58749;48.022;10.922;2023-01-08T06:09:47;4.70;99.90
6664;DHT22;58749;48.022;10.922;2023-01-08T06:12:17;4.70;99.90
6664;DHT22;58749;48.022;10.922;2023-01-08T06:14:45;4.80;99.90
6664;DHT22;58749;48.022;10.922;2023-01-08T06:17:13;4.80;99.90
6664;DHT22;58749;48.022;10.922;2023-01-08T06:19:43;4.70;99.90
6664;DHT22;58749;48.022;10.922;2023-01-08T06:22:13;4.60;99.90
6664;DHT22;58749;48.022;10.922;2023-01-08T06:24:41;4.60;99.90
6664;DHT22;58749;48.022;10.922;2023-01-08T06:27:09;4.70;99.90
6664;DHT22;58749;48.022;10.922;2023-01-08T06:29:37;4.80;99.90
6664;DHT22;58749;48.022;10.922;2023-01-08T06:32:05;4.90;99.90
6664;DHT22;58749;48.022;10.922;2023-01-08T06:34:33;5.00;99.90
6664;DHT22;58749;48.022;10.922;2023-01-08T06:37:02;5.00;99.90
6664;DHT22;58749;48.022;10.922;2023-01-08T06:39:30;5.10;99.90
6664;DHT22;58749;48.022;10.922;2023-01-08T06:41:58;5.10;99.90
6664;DHT22;58749;48.022;10.922;2023-01-08T06:44:26;5.10;99.90
6664;DHT22;58749;48.022;10.922;2023-01-08T06:46:54;5.20;99.90
6664;DHT22;58749;48.022;10.922;2023-01-08T06:49:22;5.20;99.90
6664;DHT22;58749;48.022;10.922;2023-01-08T06:51:50;5.20;99.90
6664;DHT22;58749;48.022;10.922;2023-01-08T06:54:19;5.20;99.90
6664;DHT22;58749;48.022;10.922;2023-01-08T06:56:47;5.20;99.90
6664;DHT22;58749;48.022;10.922;2023-01-08T06:59:20;5.20;99.90
6664;DHT22;58749;48.022;10.922;2023-01-08T07:01:48;5.30;99.90
6664;DHT22;58749;48.022;10.922;2023-01-08T07:04:17;5.20;99.90
6664;DHT22;58749;48.022;10.922;2023-01-08T07:06:45;5.20;99.90
6664;DHT22;58749;48.022;10.922;2023-01-08T07:09:14;5.30;99.90
6664;DHT22;58749;48.022;10.922;2023-01-08T07:11:43;5.30;99.90
6664;DHT22;58749;48.022;10.922;2023-01-08T07:14:12;5.30;99.90
6664;DHT22;58749;48.022;10.922;2023-01-08T07:16:39;5.30;99.90
6664;DHT22;58749;48.022;10.922;2023-01-08T07:19:07;5.30;99.90
6664;DHT22;58749;48.022;10.922;2023-01-08T07:21:36;5.30;99.90
6664;DHT22;58749;48.022;10.922;2023-01-08T07:24:04;5.20;99.90
6664;DHT22;58749;48.022;10.922;2023-01-08T07:26:33;5.30;99.90
6664;DHT22;58749;48.022;10.922;2023-01-08T07:29:02;5.30;99.90
6664;DHT22;58749;48.022;10.922;2023-01-08T07:31:30;5.30;99.90
6664;DHT22;58749;48.022;10.922;2023-01-08T07:33:58;5.30;99.90
6664;DHT22;58749;48.022;10.922;2023-01-08T07:36:26;5.30;99.90
6664;DHT22;58749;48.022;10.922;2023-01-08T07:38:54;5.30;99.90
6664;DHT22;58749;48.022;10.922;2023-01-08T07:41:22;5.30;99.90
6664;DHT22;58749;48.022;10.922;2023-01-08T07:43:50;5.30;99.90
6664;DHT22;58749;48.022;10.922;2023-01-08T07:46:20;5.30;99.90
6664;DHT22;58749;48.022;10.922;2023-01-08T07:48:48;5.30;99.90
6664;DHT22;58749;48.022;10.922;2023-01-08T07:51:16;5.30;99.90
6664;DHT22;58749;48.022;10.922;2023-01-08T07:53:44;5.30;99.90
6664;DHT22;58749;48.022;10.922;2023-01-08T07:56:12;5.30;99.90
6664;DHT22;58749;48.022;10.922;2023-01-08T07:58:40;5.30;99.90
6664;DHT22;58749;48.022;10.922;2023-01-08T08:01:09;5.20;99.90
6664;DHT22;58749;48.022;10.922;2023-01-08T08:03:39;5.10;99.90
6664;DHT22;58749;48.022;10.922;2023-01-08T08:06:08;5.10;99.90
6664;DHT22;58749;48.022;10.922;2023-01-08T08:08:36;5.10;99.90
6664;DHT22;58749;48.022;10.922;2023-01-08T08:11:05;5.20;99.90
6664;DHT22;58749;48.022;10.922;2023-01-08T08:13:34;5.20;99.90
6664;DHT22;58749;48.022;10.922;2023-01-08T08:16:02;5.20;99.90
6664;DHT22;58749;48.022;10.922;2023-01-08T08:18:30;5.30;99.90
6664;DHT22;58749;48.022;10.922;2023-01-08T08:21:00;5.40;99.90
6664;DHT22;58749;48.022;10.922;2023-01-08T08:23:29;5.40;99.90
6664;DHT22;58749;48.022;10.922;2023-01-08T08:25:58;5.50;99.90
6664;DHT22;58749;48.022;10.922;2023-01-08T08:28:26;5.50;99.90
6664;DHT22;58749;48.022;10.922;2023-01-08T08:30:54;5.50;99.90
6664;DHT22;58749;48.022;10.922;2023-01-08T08:33:22;5.60;99.90
6664;DHT22;58749;48.022;10.922;2023-01-08T08:35:50;5.60;99.90
6664;DHT22;58749;48.022;10.922;2023-01-08T08:38:19;5.60;99.90
6664;DHT22;58749;48.022;10.922;2023-01-08T08:40:49;5.60;99.90
6664;DHT22;58749;48.022;10.922;2023-01-08T08:43:18;5.60;99.90
6664;DHT22;58749;48.022;10.922;2023-01-08T08:45:46;5.70;99.90
6664;DHT22;58749;48.022;10.922;2023-01-08T08:48:14;5.70;99.90
6664;DHT22;58749;48.022;10.922;2023-01-08T08:50:43;5.70;99.90
6664;DHT22;58749;48.022;10.922;2023-01-08T08:53:11;5.70;99.90
6664;DHT22;58749;48.022;10.922;2023-01-08T08:55:40;5.80;99.90
6664;DHT22;58749;48.022;10.922;2023-01-08T08:58:09;5.80;99.90
6664;DHT22;58749;48.022;10.922;2023-01-08T09:00:38;5.80;99.90
6664;DHT22;58749;48.022;10.922;2023-01-08T09:03:08;5.80;99.90
6664;DHT22;58749;48.022;10.922;2023-01-08T09:05:37;5.80;99.90
6664;DHT22;58749;48.022;10.922;2023-01-08T09:08:05;5.80;99.90
6664;DHT22;58749;48.022;10.922;2023-01-08T09:10:35;5.80;99.90
6664;DHT22;58749;48.022;10.922;2023-01-08T09:13:04;5.90;99.90
6664;DHT22;58749;48.022;10.922;2023-01-08T09:15:32;5.90;99.90
6664;DHT22;58749;48.022;10.922;2023-01-08T09:18:01;6.00;99.90
6664;DHT22;58749;48.022;10.922;2023-01-08T09:20:29;6.00;99.90
6664;DHT22;58749;48.022;10.922;2023-01-08T09:22:57;6.00;99.90
6664;DHT22;58749;48.022;10.922;2023-01-08T09:25:25;6.10;99.90
6664;DHT22;58749;48.022;10.922;2023-01-08T09:27:58;6.10;99.90
6664;DHT22;58749;48.022;10.922;2023-01-08T09:30:27;6.10;99.90
6664;DHT22;58749;48.022;10.922;2023-01-08T09:32:56;6.20;99.90
6664;DHT22;58749;48.022;10.922;2023-01-08T09:35:28;6.30;99.90
6664;DHT22;58749;48.022;10.922;2023-01-08T09:37:56;6.40;99.90
6664;DHT22;58749;48.022;10.922;2023-01-08T09:40:27;6.40;99.90
6664;DHT22;58749;48.022;10.922;2023-01-08T09:42:57;6.50;99.90
6664;DHT22;58749;48.022;10.922;2023-01-08T09:45:30;6.50;99.90
6664;DHT22;58749;48.022;10.922;2023-01-08T09:48:02;6.60;99.90
6664;DHT22;58749;48.022;10.922;2023-01-08T09:50:33;6.50;99.90
6664;DHT22;58749;48.022;10.922;2023-01-08T09:53:01;6.60;99.90
6664;DHT22;58749;48.022;10.922;2023-01-08T09:55:32;6.60;99.90
6664;DHT22;58749;48.022;10.922;2023-01-08T09:58:00;6.60;99.90
6664;DHT22;58749;48.022;10.922;2023-01-08T10:00:32;6.70;99.90
6664;DHT22;58749;48.022;10.922;2023-01-08T10:03:01;6.80;99.90
6664;DHT22;58749;48.022;10.922;2023-01-08T10:05:29;6.80;99.90
6664;DHT22;58749;48.022;10.922;2023-01-08T10:07:57;6.90;99.90
6664;DHT22;58749;48.022;10.922;2023-01-08T10:10:28;6.90;99.90
6664;DHT22;58749;48.022;10.922;2023-01-08T10:12:57;6.90;99.90
6664;DHT22;58749;48.022;10.922;2023-01-08T10:15:25;6.90;99.90
6664;DHT22;58749;48.022;10.922;2023-01-08T10:17:59;6.90;99.90
6664;DHT22;58749;48.022;10.922;2023-01-08T10:20:30;6.90;99.90
6664;DHT22;58749;48.022;10.922;2023-01-08T10:23:08;6.80;99.90
6664;DHT22;58749;48.022;10.922;2023-01-08T10:25:49;6.80;99.90
6664;DHT22;58749;48.022;10.922;2023-01-08T10:28:19;6.70;99.90
6664;DHT22;58749;48.022;10.922;2023-01-08T10:30:49;6.70;99.90
6664;DHT22;58749;48.022;10.922;2023-01-08T10:33:22;6.60;99.90
6664;DHT22;58749;48.022;10.922;2023-01-08T10:35:53;6.60;99.90
6664;DHT22;58749;48.022;10.922;2023-01-08T10:38:25;6.60;99.90
6664;DHT22;58749;48.022;10.922;2023-01-08T10:40:54;6.60;99.90
6664;DHT22;58749;48.022;10.922;2023-01-08T10:43:26;6.60;99.90
6664;DHT22;58749;48.022;10.922;2023-01-08T10:45:57;6.70;99.90
6664;DHT22;58749;48.022;10.922;2023-01-08T10:48:31;6.70;99.90
6664;DHT22;58749;48.022;10.922;2023-01-08T10:51:12;6.70;99.90
6664;DHT22;58749;48.022;10.922;2023-01-08T10:53:41;6.70;99.90
6664;DHT22;58749;48.022;10.922;2023-01-08T10:58:55;6.70;99.90
6664;DHT22;58749;48.022;10.922;2023-01-08T11:01:24;6.70;99.90
6664;DHT22;58749;48.022;10.922;2023-01-08T11:03:57;6.80;99.90
6664;DHT22;58749;48.022;10.922;2023-01-08T11:06:27;6.80;99.90
6664;DHT22;58749;48.022;10.922;2023-01-08T11:08:58;6.80;99.90
6664;DHT22;58749;48.022;10.922;2023-01-08T11:11:31;6.80;99.90
6664;DHT22;58749;48.022;10.922;2023-01-08T11:14:03;6.90;99.90
6664;DHT22;58749;48.022;10.922;2023-01-08T11:16:33;6.90;99.90
6664;DHT22;58749;48.022;10.922;2023-01-08T11:19:12;7.00;99.90
6664;DHT22;58749;48.022;10.922;2023-01-08T11:21:41;7.10;99.90
6664;DHT22;58749;48.022;10.922;2023-01-08T11:24:23;7.30;99.90
6664;DHT22;58749;48.022;10.922;2023-01-08T11:26:56;7.50;99.90
6664;DHT22;58749;48.022;10.922;2023-01-08T11:29:30;7.60;99.90
6664;DHT22;58749;48.022;10.922;2023-01-08T11:32:21;7.70;99.90
6664;DHT22;58749;48.022;10.922;2023-01-08T11:34:55;7.80;99.90
6664;DHT22;58749;48.022;10.922;2023-01-08T11:37:26;7.90;99.90
6664;DHT22;58749;48.022;10.922;2023-01-08T11:39:55;7.90;99.90
6664;DHT22;58749;48.022;10.922;2023-01-08T11:42:38;8.00;99.90
6664;DHT22;58749;48.022;10.922;2023-01-08T11:45:15;8.00;99.90
6664;DHT22;58749;48.022;10.922;2023-01-08T11:47:56;8.00;99.90
6664;DHT22;58749;48.022;10.922;2023-01-08T11:50:31;8.00;99.90
6664;DHT22;58749;48.022;10.922;2023-01-08T11:53:14;8.00;99.90
6664;DHT22;58749;48.022;10.922;2023-01-08T11:55:51;8.00;99.90
6664;DHT22;58749;48.022;10.922;2023-01-08T11:58:29;8.00;99.90
6664;DHT22;58749;48.022;10.922;2023-01-08T12:01:18;8.00;99.90
6664;DHT22;58749;48.022;10.922;2023-01-08T12:04:03;8.00;99.90
6664;DHT22;58749;48.022;10.922;2023-01-08T12:06:42;8.00;99.90
6664;DHT22;58749;48.022;10.922;2023-01-08T12:09:19;8.00;99.90
6664;DHT22;58749;48.022;10.922;2023-01-08T12:11:52;8.00;99.90
6664;DHT22;58749;48.022;10.922;2023-01-08T12:14:32;8.10;99.90
6664;DHT22;58749;48.022;10.922;2023-01-08T12:17:15;8.00;99.90
6664;DHT22;58749;48.022;10.922;2023-01-08T12:19:58;8.00;99.90
6664;DHT22;58749;48.022;10.922;2023-01-08T12:22:37;8.00;99.90
6664;DHT22;58749;48.022;10.922;2023-01-08T12:25:34;7.90;99.90
6664;DHT22;58749;48.022;10.922;2023-01-08T12:28:12;7.90;99.90
6664;DHT22;58749;48.022;10.922;2023-01-08T12:30:49;7.90;99.90
6664;DHT22;58749;48.022;10.922;2023-01-08T12:33:29;7.90;99.90
6664;DHT22;58749;48.022;10.922;2023-01-08T12:36:02;7.90;99.90
6664;DHT22;58749;48.022;10.922;2023-01-08T12:38:34;7.90;99.90
6664;DHT22;58749;48.022;10.922;2023-01-08T12:41:05;7.90;99.90
6664;DHT22;58749;48.022;10.922;2023-01-08T12:43:43;7.90;99.90
6664;DHT22;58749;48.022;10.922;2023-01-08T12:46:14;7.90;99.90
6664;DHT22;58749;48.022;10.922;2023-01-08T12:48:44;7.90;99.90
6664;DHT22;58749;48.022;10.922;2023-01-08T12:51:16;7.90;99.90
6664;DHT22;58749;48.022;10.922;2023-01-08T12:53:55;7.80;99.90
6664;DHT22;58749;48.022;10.922;2023-01-08T12:56:29;7.80;99.90
6664;DHT22;58749;48.022;10.922;2023-01-08T12:59:10;7.80;99.90
6664;DHT22;58749;48.022;10.922;2023-01-08T13:01:46;7.80;99.90
6664;DHT22;58749;48.022;10.922;2023-01-08T13:04:18;7.80;99.90
6664;DHT22;58749;48.022;10.922;2023-01-08T13:06:53;7.70;99.90
6664;DHT22;58749;48.022;10.922;2023-01-08T13:09:28;7.60;99.90
6664;DHT22;58749;48.022;10.922;2023-01-08T13:11:58;7.50;99.90
6664;DHT22;58749;48.022;10.922;2023-01-08T13:14:27;7.50;99.90
6664;DHT22;58749;48.022;10.922;2023-01-08T13:17:04;7.60;99.90
6664;DHT22;58749;48.022;10.922;2023-01-08T13:19:38;7.60;99.90
6664;DHT22;58749;48.022;10.922;2023-01-08T13:22:22;7.50;99.90
6664;DHT22;58749;48.022;10.922;2023-01-08T13:25:07;7.50;99.90
6664;DHT22;58749;48.022;10.922;2023-01-08T13:27:36;7.40;99.90
6664;DHT22;58749;48.022;10.922;2023-01-08T13:30:30;7.40;99.90
6664;DHT22;58749;48.022;10.922;2023-01-08T13:32:59;7.40;99.90
6664;DHT22;58749;48.022;10.922;2023-01-08T13:35:28;7.40;99.90
6664;DHT22;58749;48.022;10.922;2023-01-08T13:38:21;7.30;99.90
6664;DHT22;58749;48.022;10.922;2023-01-08T13:40:56;7.30;99.90
6664;DHT22;58749;48.022;10.922;2023-01-08T13:43:29;7.30;99.90
6664;DHT22;58749;48.022;10.922;2023-01-08T13:46:06;7.30;99.90
6664;DHT22;58749;48.022;10.922;2023-01-08T13:48:37;7.30;99.90
6664;DHT22;58749;48.022;10.922;2023-01-08T13:51:26;7.30;99.90
6664;DHT22;58749;48.022;10.922;2023-01-08T13:53:55;7.40;99.90
6664;DHT22;58749;48.022;10.922;2023-01-08T13:56:25;7.50;99.90
6664;DHT22;58749;48.022;10.922;2023-01-08T13:58:53;7.50;99.90
6664;DHT22;58749;48.022;10.922;2023-01-08T14:01:22;7.60;99.90
6664;DHT22;58749;48.022;10.922;2023-01-08T14:03:50;7.70;99.90
6664;DHT22;58749;48.022;10.922;2023-01-08T14:06:20;7.70;99.90
6664;DHT22;58749;48.022;10.922;2023-01-08T14:08:49;7.80;99.90
6664;DHT22;58749;48.022;10.922;2023-01-08T14:11:18;7.70;99.90
6664;DHT22;58749;48.022;10.922;2023-01-08T14:13:49;7.70;99.90
6664;DHT22;58749;48.022;10.922;2023-01-08T14:16:17;7.60;99.90
6664;DHT22;58749;48.022;10.922;2023-01-08T14:18:46;7.60;99.90
6664;DHT22;58749;48.022;10.922;2023-01-08T14:21:20;7.50;99.90
6664;DHT22;58749;48.022;10.922;2023-01-08T14:23:48;7.50;99.90
6664;DHT22;58749;48.022;10.922;2023-01-08T14:26:22;7.50;99.90
6664;DHT22;58749;48.022;10.922;2023-01-08T14:28:53;7.50;99.90
6664;DHT22;58749;48.022;10.922;2023-01-08T14:31:23;7.60;99.90
6664;DHT22;58749;48.022;10.922;2023-01-08T14:33:53;7.60;99.90
6664;DHT22;58749;48.022;10.922;2023-01-08T14:36:22;7.60;99.90
6664;DHT22;58749;48.022;10.922;2023-01-08T14:38:51;7.60;99.90
6664;DHT22;58749;48.022;10.922;2023-01-08T14:41:24;7.60;99.90
6664;DHT22;58749;48.022;10.922;2023-01-08T14:44:14;7.60;99.90
6664;DHT22;58749;48.022;10.922;2023-01-08T14:46:48;7.50;99.90
6664;DHT22;58749;48.022;10.922;2023-01-08T14:49:21;7.50;99.90
6664;DHT22;58749;48.022;10.922;2023-01-08T14:51:51;7.50;99.90
6664;DHT22;58749;48.022;10.922;2023-01-08T14:54:22;7.40;99.90
6664;DHT22;58749;48.022;10.922;2023-01-08T14:56:55;7.40;99.90
6664;DHT22;58749;48.022;10.922;2023-01-08T14:59:28;7.40;99.90
6664;DHT22;58749;48.022;10.922;2023-01-08T15:01:59;7.40;99.90
6664;DHT22;58749;48.022;10.922;2023-01-08T15:04:29;7.40;99.90
6664;DHT22;58749;48.022;10.922;2023-01-08T15:07:06;7.40;99.90
6664;DHT22;58749;48.022;10.922;2023-01-08T15:09:35;7.30;99.90
6664;DHT22;58749;48.022;10.922;2023-01-08T15:12:06;7.30;99.90
6664;DHT22;58749;48.022;10.922;2023-01-08T15:14:37;7.30;99.90
6664;DHT22;58749;48.022;10.922;2023-01-08T15:17:09;7.20;99.90
6664;DHT22;58749;48.022;10.922;2023-01-08T15:19:40;7.20;99.90
6664;DHT22;58749;48.022;10.922;2023-01-08T15:22:14;7.10;99.90
6664;DHT22;58749;48.022;10.922;2023-01-08T15:24:44;7.10;99.90
6664;DHT22;58749;48.022;10.922;2023-01-08T15:27:18;7.00;99.90
6664;DHT22;58749;48.022;10.922;2023-01-08T15:29:50;7.10;99.90
6664;DHT22;58749;48.022;10.922;2023-01-08T15:32:27;7.10;99.90
6664;DHT22;58749;48.022;10.922;2023-01-08T15:34:56;7.10;99.90
6664;DHT22;58749;48.022;10.922;2023-01-08T15:37:24;7.00;99.90
6664;DHT22;58749;48.022;10.922;2023-01-08T15:39:53;7.00;99.90
6664;DHT22;58749;48.022;10.922;2023-01-08T15:42:22;6.90;99.90
6664;DHT22;58749;48.022;10.922;2023-01-08T15:45:12;6.90;99.90
6664;DHT22;58749;48.022;10.922;2023-01-08T15:47:41;6.80;99.90
6664;DHT22;58749;48.022;10.922;2023-01-08T15:50:09;6.80;99.90
6664;DHT22;58749;48.022;10.922;2023-01-08T15:52:39;6.80;99.90
6664;DHT22;58749;48.022;10.922;2023-01-08T15:55:13;6.70;99.90
6664;DHT22;58749;48.022;10.922;2023-01-08T15:57:42;6.70;99.90
6664;DHT22;58749;48.022;10.922;2023-01-08T16:00:16;6.60;99.90
6664;DHT22;58749;48.022;10.922;2023-01-08T16:02:47;6.60;99.90
6664;DHT22;58749;48.022;10.922;2023-01-08T16:05:16;6.60;99.90
6664;DHT22;58749;48.022;10.922;2023-01-08T16:07:45;6.60;99.90
6664;DHT22;58749;48.022;10.922;2023-01-08T16:10:14;6.60;99.90
6664;DHT22;58749;48.022;10.922;2023-01-08T16:12:42;6.50;99.90